createdAt,value
2018-03-24T18:39:45.036Z,12.28
2018-03-24T18:50:14.688Z,12.32
2018-03-24T18:52:46.481Z,14.45
2018-03-24T18:55:24.217Z,14.25
2018-03-24T19:22:11.514Z,16.05
2018-03-24T19:24:53.514Z,14.67
2018-03-24T19:27:55.173Z,16.80
2018-03-24T19:30:36.184Z,16.12
2018-03-24T19:36:18.695Z,16.08
2018-03-24T19:39:05.255Z,15.40
2018-03-24T21:18:26.220Z,21.17
2018-03-24T21:23:32.407Z,21.23
2018-03-24T21:26:02.361Z,21.50
2018-03-24T21:28:33.281Z,22.27
2018-03-24T21:31:03.553Z,19.05
2018-03-24T21:33:33.618Z,21.98
2018-03-24T21:36:04.355Z,21.42
2018-03-24T21:38:34.764Z,25.15
2018-03-24T21:41:06.439Z,22.80
2018-03-24T21:43:36.676Z,22.42
2018-03-24T21:46:06.652Z,21.15
2018-03-24T21:48:36.708Z,20.95
2018-03-24T21:51:32.857Z,21.37
2018-03-24T21:54:03.266Z,22.52
2018-03-24T21:56:33.749Z,21.05
2018-03-24T21:59:07.445Z,20.37
2018-03-24T22:01:39.741Z,22.90
2018-03-24T22:04:11.310Z,23.87
2018-03-24T22:06:42.055Z,21.83
2018-03-24T22:09:14.001Z,24.23
2018-03-24T22:11:44.303Z,23.60
2018-03-24T22:14:15.293Z,22.58
2018-03-24T22:16:46.019Z,23.30
2018-03-24T22:19:16.057Z,22.75
2018-03-24T22:21:46.854Z,21.17
2018-03-24T22:24:17.107Z,22.62
2018-03-24T22:26:47.375Z,22.58
2018-03-24T22:29:17.944Z,22.85
2018-03-24T22:31:48.178Z,22.13
2018-03-24T22:34:18.138Z,21.87
2018-03-24T22:36:48.150Z,25.50
2018-03-24T22:39:18.456Z,22.65
2018-03-24T22:41:49.105Z,22.77
2018-03-24T22:44:20.104Z,23.50
2018-03-24T22:46:50.702Z,23.70
2018-03-24T22:49:20.682Z,22.75
2018-03-24T22:51:50.609Z,23.02
2018-03-24T22:54:20.898Z,24.17
2018-03-24T22:56:50.921Z,21.70
2018-03-24T22:59:20.876Z,20.83
2018-03-24T23:01:51.142Z,24.25
2018-03-24T23:04:21.194Z,24.98
2018-03-24T23:06:51.230Z,24.12
2018-03-24T23:09:21.471Z,21.52
2018-03-24T23:11:52.263Z,20.45
2018-03-24T23:14:22.202Z,22.15
2018-03-24T23:16:52.495Z,24.33
2018-03-24T23:19:23.588Z,23.17
2018-03-24T23:21:53.532Z,22.83
2018-03-24T23:24:23.845Z,23.98
2018-03-24T23:26:53.802Z,26.77
2018-03-24T23:29:23.731Z,27.75
2018-03-24T23:31:54.155Z,31.50
2018-03-24T23:34:24.166Z,26.85
2018-03-24T23:36:54.060Z,26.77
2018-03-24T23:39:24.286Z,24.87
2018-03-24T23:41:54.254Z,23.42
2018-03-24T23:44:24.245Z,21.77
2018-03-24T23:46:55.495Z,23.27
2018-03-24T23:49:25.443Z,23.65
2018-03-24T23:51:55.374Z,21.27
2018-03-24T23:54:25.638Z,23.73
2018-03-24T23:57:02.294Z,22.90
2018-03-24T23:59:33.586Z,24.00
